KLM180 EHAM-EDDH
Flight info
| Callsign | KLM180 |
|---|---|
| Flight time | 0h 39m |
| Altitude | 37000 |
| Route | ANDIK M105 RIBSO RIBSO7A |
| Aircraft | B77W/H-SDE1E2E3FGHIJ2J3J4J5M1RWXY/LB1D1 |
Departure
| Time | 2026-05-07 17:28 |
|---|---|
| Airport | Amsterdam Airport Schiphol (EHAM) |
Arrival
| Time | 2026-05-07 18:08 |
|---|---|
| Airport | Hamburg Helmut Schmidt Airport (EDDH) |
| Time | Latitude | Longitude | Altitude | Speed | Heading |
|---|---|---|---|---|---|
| 2026-05-07 17:05 | 52.31161 | 4.76793 | 5 ft | 0 kts | 303° |
| 2026-05-07 17:12 | 52.31160 | 4.76795 | 5 ft | 2 kts | 303° |
| 2026-05-07 17:12 | 52.31150 | 4.76817 | 5 ft | 2 kts | 315° |
| 2026-05-07 17:12 | 52.31137 | 4.76834 | 5 ft | 2 kts | 328° |
| 2026-05-07 17:12 | 52.31123 | 4.76846 | 5 ft | 2 kts | 339° |
| 2026-05-07 17:13 | 52.31108 | 4.76853 | 5 ft | 2 kts | 351° |
| 2026-05-07 17:13 | 52.31092 | 4.76856 | 5 ft | 2 kts | 2° |
| 2026-05-07 17:13 | 52.31076 | 4.76853 | 5 ft | 2 kts | 13° |
| 2026-05-07 17:13 | 52.31060 | 4.76845 | 5 ft | 2 kts | 25° |
| 2026-05-07 17:14 | 52.31050 | 4.76836 | 5 ft | 0 kts | 33° |
| 2026-05-07 17:14 | 52.31048 | 4.76833 | 5 ft | 0 kts | 34° |
| 2026-05-07 17:15 | 52.31048 | 4.76834 | 5 ft | 0 kts | 34° |
| 2026-05-07 17:19 | 52.31063 | 4.76851 | 5 ft | 6 kts | 34° |
| 2026-05-07 17:20 | 52.31117 | 4.76910 | 5 ft | 12 kts | 34° |
| 2026-05-07 17:20 | 52.31205 | 4.77002 | 5 ft | 17 kts | 33° |
| 2026-05-07 17:20 | 52.31315 | 4.77121 | 5 ft | 18 kts | 34° |
| 2026-05-07 17:20 | 52.31412 | 4.77251 | 5 ft | 17 kts | 46° |
| 2026-05-07 17:21 | 52.31496 | 4.77381 | 5 ft | 16 kts | 38° |
| 2026-05-07 17:21 | 52.31569 | 4.77336 | 5 ft | 14 kts | 284° |
| 2026-05-07 17:21 | 52.31570 | 4.77147 | 5 ft | 16 kts | 267° |
| 2026-05-07 17:21 | 52.31563 | 4.76921 | 5 ft | 19 kts | 267° |
| 2026-05-07 17:22 | 52.31554 | 4.76662 | 5 ft | 21 kts | 266° |
| 2026-05-07 17:22 | 52.31544 | 4.76365 | 5 ft | 24 kts | 266° |
| 2026-05-07 17:22 | 52.31533 | 4.76055 | 5 ft | 26 kts | 267° |
| 2026-05-07 17:22 | 52.31523 | 4.75736 | 5 ft | 27 kts | 266° |
| 2026-05-07 17:23 | 52.31508 | 4.75401 | 5 ft | 29 kts | 266° |
| 2026-05-07 17:23 | 52.31496 | 4.75024 | 5 ft | 31 kts | 268° |
| 2026-05-07 17:23 | 52.31482 | 4.74604 | 5 ft | 32 kts | 268° |
| 2026-05-07 17:23 | 52.31454 | 4.74215 | 5 ft | 25 kts | 237° |
| 2026-05-07 17:24 | 52.31281 | 4.74124 | 5 ft | 29 kts | 184° |
| 2026-05-07 17:24 | 52.31050 | 4.74101 | 5 ft | 35 kts | 182° |
| 2026-05-07 17:24 | 52.30806 | 4.74082 | 5 ft | 33 kts | 184° |
| 2026-05-07 17:24 | 52.30580 | 4.74056 | 5 ft | 30 kts | 182° |
| 2026-05-07 17:25 | 52.30445 | 4.74035 | 5 ft | 10 kts | 212° |
| 2026-05-07 17:25 | 52.30412 | 4.73946 | 5 ft | 0 kts | 262° |
| 2026-05-07 17:27 | 52.30412 | 4.73940 | 5 ft | 2 kts | 262° |
| 2026-05-07 17:27 | 52.30409 | 4.73863 | 5 ft | 9 kts | 272° |
| 2026-05-07 17:27 | 52.30460 | 4.73766 | 5 ft | 14 kts | 347° |
| 2026-05-07 17:28 | 52.30608 | 4.73771 | 5 ft | 41 kts | 2° |
| 2026-05-07 17:28 | 52.31211 | 4.73821 | 6 ft | 129 kts | 2° |
| 2026-05-07 17:28 | 52.32315 | 4.73919 | 310 ft | 179 kts | 4° |
| 2026-05-07 17:28 | 52.33519 | 4.73971 | 1462 ft | 175 kts | 6° |
| 2026-05-07 17:29 | 52.34670 | 4.74373 | 2285 ft | 179 kts | 25° |
| 2026-05-07 17:29 | 52.35837 | 4.75293 | 2935 ft | 195 kts | 28° |
| 2026-05-07 17:29 | 52.37064 | 4.76311 | 3724 ft | 204 kts | 29° |
| 2026-05-07 17:29 | 52.38206 | 4.77620 | 4571 ft | 208 kts | 45° |
| 2026-05-07 17:30 | 52.39228 | 4.79279 | 5437 ft | 212 kts | 47° |
| 2026-05-07 17:30 | 52.40275 | 4.81015 | 5919 ft | 216 kts | 47° |
| 2026-05-07 17:30 | 52.41396 | 4.82878 | 6330 ft | 242 kts | 47° |
| 2026-05-07 17:30 | 52.42645 | 4.84820 | 7001 ft | 260 kts | 37° |
| 2026-05-07 17:31 | 52.44317 | 4.86089 | 7728 ft | 277 kts | 12° |
| 2026-05-07 17:31 | 52.46243 | 4.86222 | 8700 ft | 282 kts | 357° |
| 2026-05-07 17:31 | 52.48192 | 4.85992 | 9776 ft | 284 kts | 355° |
| 2026-05-07 17:31 | 52.50173 | 4.85824 | 10669 ft | 293 kts | 0° |
| 2026-05-07 17:32 | 52.52265 | 4.86162 | 11346 ft | 311 kts | 11° |
| 2026-05-07 17:32 | 52.54358 | 4.87158 | 12022 ft | 328 kts | 21° |
| 2026-05-07 17:32 | 52.56446 | 4.88933 | 12732 ft | 345 kts | 33° |
| 2026-05-07 17:32 | 52.58370 | 4.91463 | 13063 ft | 371 kts | 44° |
| 2026-05-07 17:33 | 52.60075 | 4.94921 | 13077 ft | 383 kts | 57° |
| 2026-05-07 17:33 | 52.61473 | 4.98721 | 13147 ft | 395 kts | 58° |
| 2026-05-07 17:33 | 52.62968 | 5.02527 | 14127 ft | 401 kts | 56° |
| 2026-05-07 17:33 | 52.64515 | 5.06222 | 15525 ft | 396 kts | 55° |
| 2026-05-07 17:34 | 52.66106 | 5.09888 | 16622 ft | 399 kts | 54° |
| 2026-05-07 17:34 | 52.67775 | 5.13618 | 17466 ft | 408 kts | 53° |
| 2026-05-07 17:34 | 52.69487 | 5.17367 | 18343 ft | 415 kts | 53° |
| 2026-05-07 17:34 | 52.71235 | 5.21146 | 19275 ft | 421 kts | 52° |
| 2026-05-07 17:35 | 52.72961 | 5.25002 | 20185 ft | 426 kts | 57° |
| 2026-05-07 17:35 | 52.74366 | 5.29332 | 21082 ft | 431 kts | 67° |
| 2026-05-07 17:35 | 52.75435 | 5.33967 | 21944 ft | 436 kts | 70° |
| 2026-05-07 17:35 | 52.76442 | 5.38617 | 22758 ft | 442 kts | 70° |
| 2026-05-07 17:36 | 52.77483 | 5.43456 | 23567 ft | 447 kts | 70° |
| 2026-05-07 17:36 | 52.78521 | 5.48287 | 24333 ft | 453 kts | 70° |
| 2026-05-07 17:36 | 52.79579 | 5.53221 | 24972 ft | 460 kts | 70° |
| 2026-05-07 17:36 | 52.80647 | 5.58210 | 25089 ft | 462 kts | 70° |
| 2026-05-07 17:37 | 52.81715 | 5.63211 | 25089 ft | 461 kts | 70° |
| 2026-05-07 17:37 | 52.82785 | 5.68233 | 25104 ft | 467 kts | 71° |
| 2026-05-07 17:37 | 52.83863 | 5.73308 | 25748 ft | 473 kts | 71° |
| 2026-05-07 17:37 | 52.84938 | 5.78380 | 26865 ft | 469 kts | 71° |
| 2026-05-07 17:38 | 52.86004 | 5.83419 | 27802 ft | 469 kts | 71° |
| 2026-05-07 17:38 | 52.87087 | 5.88556 | 28416 ft | 476 kts | 71° |
| 2026-05-07 17:38 | 52.88183 | 5.93762 | 28992 ft | 483 kts | 71° |
| 2026-05-07 17:38 | 52.89287 | 5.99024 | 29680 ft | 487 kts | 71° |
| 2026-05-07 17:39 | 52.90379 | 6.04240 | 30604 ft | 485 kts | 71° |
| 2026-05-07 17:39 | 52.91465 | 6.09439 | 31608 ft | 479 kts | 71° |
| 2026-05-07 17:39 | 52.92533 | 6.14567 | 32490 ft | 474 kts | 71° |
| 2026-05-07 17:39 | 52.93614 | 6.19767 | 33235 ft | 471 kts | 71° |
| 2026-05-07 17:40 | 52.94669 | 6.24857 | 33832 ft | 470 kts | 71° |
| 2026-05-07 17:40 | 52.95796 | 6.30306 | 34482 ft | 468 kts | 71° |
| 2026-05-07 17:40 | 52.96901 | 6.35663 | 35063 ft | 465 kts | 71° |
| 2026-05-07 17:40 | 52.97979 | 6.40906 | 35476 ft | 466 kts | 71° |
| 2026-05-07 17:41 | 52.98949 | 6.46160 | 35789 ft | 467 kts | 77° |
| 2026-05-07 17:41 | 52.99681 | 6.51449 | 36102 ft | 469 kts | 78° |
| 2026-05-07 17:41 | 53.00413 | 6.56901 | 36455 ft | 469 kts | 78° |
| 2026-05-07 17:41 | 53.01118 | 6.62178 | 36802 ft | 469 kts | 78° |
| 2026-05-07 17:42 | 53.01831 | 6.67536 | 37025 ft | 472 kts | 78° |
| 2026-05-07 17:42 | 53.02576 | 6.73155 | 37048 ft | 474 kts | 78° |
| 2026-05-07 17:42 | 53.03996 | 6.83923 | 36612 ft | 465 kts | 78° |
| 2026-05-07 17:43 | 53.04696 | 6.89261 | 36022 ft | 466 kts | 78° |
| 2026-05-07 17:43 | 53.05406 | 6.94694 | 35379 ft | 468 kts | 78° |
| 2026-05-07 17:43 | 53.06134 | 7.00286 | 34761 ft | 468 kts | 79° |
| 2026-05-07 17:43 | 53.06831 | 7.05663 | 34071 ft | 467 kts | 78° |
| 2026-05-07 17:44 | 53.07534 | 7.11110 | 33173 ft | 471 kts | 78° |
| 2026-05-07 17:44 | 53.08227 | 7.16500 | 32000 ft | 480 kts | 78° |
| 2026-05-07 17:44 | 53.08957 | 7.22198 | 30757 ft | 489 kts | 78° |
| 2026-05-07 17:44 | 53.09684 | 7.27898 | 30022 ft | 485 kts | 78° |
| 2026-05-07 17:45 | 53.10426 | 7.33735 | 29634 ft | 474 kts | 78° |
| 2026-05-07 17:45 | 53.11118 | 7.39200 | 29169 ft | 467 kts | 78° |
| 2026-05-07 17:45 | 53.11797 | 7.44582 | 28531 ft | 462 kts | 78° |
| 2026-05-07 17:45 | 53.12476 | 7.49988 | 27756 ft | 459 kts | 78° |
| 2026-05-07 17:46 | 53.13164 | 7.55484 | 27005 ft | 455 kts | 78° |
| 2026-05-07 17:46 | 53.13823 | 7.60772 | 26329 ft | 449 kts | 78° |
| 2026-05-07 17:46 | 53.14465 | 7.65941 | 25650 ft | 444 kts | 78° |
| 2026-05-07 17:46 | 53.15108 | 7.71132 | 24929 ft | 440 kts | 78° |
| 2026-05-07 17:47 | 53.15734 | 7.76214 | 24164 ft | 437 kts | 78° |
| 2026-05-07 17:47 | 53.16350 | 7.81223 | 23531 ft | 432 kts | 78° |
| 2026-05-07 17:47 | 53.16948 | 7.86108 | 22975 ft | 425 kts | 78° |
| 2026-05-07 17:47 | 53.17537 | 7.90938 | 22440 ft | 418 kts | 78° |
| 2026-05-07 17:48 | 53.18106 | 7.95617 | 21924 ft | 412 kts | 78° |
| 2026-05-07 17:48 | 53.18677 | 8.00323 | 21374 ft | 408 kts | 78° |
| 2026-05-07 17:48 | 53.19248 | 8.05052 | 20824 ft | 404 kts | 78° |
| 2026-05-07 17:48 | 53.19796 | 8.09604 | 20288 ft | 401 kts | 78° |
| 2026-05-07 17:49 | 53.20392 | 8.14572 | 19709 ft | 397 kts | 78° |
| 2026-05-07 17:49 | 53.20927 | 8.19053 | 19186 ft | 393 kts | 78° |
| 2026-05-07 17:49 | 53.21458 | 8.23504 | 18655 ft | 389 kts | 78° |
| 2026-05-07 17:49 | 53.21978 | 8.27879 | 18143 ft | 386 kts | 78° |
| 2026-05-07 17:50 | 53.22510 | 8.32371 | 17538 ft | 391 kts | 78° |
| 2026-05-07 17:50 | 53.23057 | 8.37009 | 16753 ft | 391 kts | 78° |
| 2026-05-07 17:50 | 53.23576 | 8.41425 | 15988 ft | 389 kts | 78° |
| 2026-05-07 17:50 | 53.24091 | 8.45818 | 15204 ft | 382 kts | 78° |
| 2026-05-07 17:51 | 53.24593 | 8.50111 | 14464 ft | 372 kts | 78° |
| 2026-05-07 17:51 | 53.25083 | 8.54317 | 13720 ft | 363 kts | 78° |
| 2026-05-07 17:51 | 53.25556 | 8.58387 | 12986 ft | 355 kts | 78° |
| 2026-05-07 17:51 | 53.26018 | 8.62379 | 12247 ft | 348 kts | 78° |
| 2026-05-07 17:52 | 53.26488 | 8.66451 | 11473 ft | 342 kts | 79° |
| 2026-05-07 17:52 | 53.26949 | 8.70454 | 10691 ft | 336 kts | 79° |
| 2026-05-07 17:52 | 53.27387 | 8.74271 | 9945 ft | 331 kts | 79° |
| 2026-05-07 17:52 | 53.27816 | 8.78024 | 9193 ft | 326 kts | 79° |
| 2026-05-07 17:53 | 53.28231 | 8.81665 | 8449 ft | 321 kts | 79° |
| 2026-05-07 17:53 | 53.28648 | 8.85321 | 7695 ft | 316 kts | 79° |
| 2026-05-07 17:53 | 53.29093 | 8.89243 | 7148 ft | 302 kts | 79° |
| 2026-05-07 17:53 | 53.29517 | 8.92980 | 6991 ft | 279 kts | 79° |
| 2026-05-07 17:54 | 53.29898 | 8.96352 | 6712 ft | 263 kts | 79° |
| 2026-05-07 17:54 | 53.30278 | 8.99724 | 6223 ft | 256 kts | 79° |
| 2026-05-07 17:54 | 53.30634 | 9.02885 | 5895 ft | 245 kts | 79° |
| 2026-05-07 17:54 | 53.30960 | 9.05788 | 5851 ft | 231 kts | 79° |
| 2026-05-07 17:55 | 53.31273 | 9.08594 | 5669 ft | 223 kts | 79° |
| 2026-05-07 17:55 | 53.31558 | 9.11149 | 5321 ft | 224 kts | 79° |
| 2026-05-07 17:55 | 53.31844 | 9.13711 | 5013 ft | 222 kts | 79° |
| 2026-05-07 17:55 | 53.32137 | 9.16351 | 4982 ft | 223 kts | 79° |
| 2026-05-07 17:56 | 53.32438 | 9.19064 | 4973 ft | 222 kts | 79° |
| 2026-05-07 17:56 | 53.32719 | 9.21596 | 4977 ft | 222 kts | 79° |
| 2026-05-07 17:56 | 53.33003 | 9.24150 | 4978 ft | 222 kts | 79° |
| 2026-05-07 17:56 | 53.33287 | 9.26716 | 4978 ft | 221 kts | 79° |
| 2026-05-07 17:57 | 53.33568 | 9.29248 | 4977 ft | 221 kts | 79° |
| 2026-05-07 17:57 | 53.33756 | 9.30933 | 4976 ft | 220 kts | 79° |
| 2026-05-07 17:57 | 53.34132 | 9.34322 | 4974 ft | 221 kts | 79° |
| 2026-05-07 17:57 | 53.34412 | 9.36862 | 4974 ft | 222 kts | 79° |
| 2026-05-07 17:58 | 53.34794 | 9.39449 | 4971 ft | 222 kts | 71° |
| 2026-05-07 17:58 | 53.35388 | 9.41832 | 4969 ft | 222 kts | 64° |
| 2026-05-07 17:58 | 53.36177 | 9.44198 | 4971 ft | 222 kts | 59° |
| 2026-05-07 17:58 | 53.37016 | 9.46326 | 4968 ft | 211 kts | 56° |
| 2026-05-07 17:59 | 53.37857 | 9.48286 | 4972 ft | 203 kts | 54° |
| 2026-05-07 17:59 | 53.38724 | 9.50174 | 4970 ft | 200 kts | 53° |
| 2026-05-07 17:59 | 53.39613 | 9.52018 | 4977 ft | 201 kts | 52° |
| 2026-05-07 17:59 | 53.40517 | 9.53843 | 4975 ft | 200 kts | 51° |
| 2026-05-07 18:00 | 53.41467 | 9.55719 | 4972 ft | 183 kts | 51° |
| 2026-05-07 18:00 | 53.42304 | 9.57353 | 4972 ft | 174 kts | 51° |
| 2026-05-07 18:00 | 53.43090 | 9.58889 | 4976 ft | 171 kts | 51° |
| 2026-05-07 18:00 | 53.43867 | 9.60414 | 4975 ft | 170 kts | 51° |
| 2026-05-07 18:01 | 53.44641 | 9.61943 | 4970 ft | 170 kts | 51° |
| 2026-05-07 18:01 | 53.45419 | 9.63487 | 4974 ft | 170 kts | 51° |
| 2026-05-07 18:01 | 53.46188 | 9.65018 | 4912 ft | 173 kts | 52° |
| 2026-05-07 18:01 | 53.46977 | 9.66604 | 4673 ft | 170 kts | 52° |
| 2026-05-07 18:02 | 53.48526 | 9.69706 | 4204 ft | 168 kts | 52° |
| 2026-05-07 18:02 | 53.49330 | 9.71310 | 3972 ft | 167 kts | 53° |
| 2026-05-07 18:02 | 53.50107 | 9.72857 | 3740 ft | 153 kts | 53° |
| 2026-05-07 18:03 | 53.50792 | 9.74225 | 3542 ft | 142 kts | 53° |
| 2026-05-07 18:03 | 53.51425 | 9.75492 | 3360 ft | 137 kts | 54° |
| 2026-05-07 18:03 | 53.52080 | 9.76803 | 3168 ft | 135 kts | 54° |
| 2026-05-07 18:03 | 53.52730 | 9.78105 | 2972 ft | 133 kts | 54° |
| 2026-05-07 18:04 | 53.53384 | 9.79416 | 2775 ft | 134 kts | 54° |
| 2026-05-07 18:04 | 53.54052 | 9.80754 | 2569 ft | 132 kts | 54° |
| 2026-05-07 18:04 | 53.54725 | 9.82104 | 2361 ft | 131 kts | 54° |
| 2026-05-07 18:04 | 53.55384 | 9.83425 | 2159 ft | 131 kts | 53° |
| 2026-05-07 18:05 | 53.56009 | 9.84678 | 1966 ft | 131 kts | 54° |
| 2026-05-07 18:05 | 53.56655 | 9.85977 | 1765 ft | 130 kts | 53° |
| 2026-05-07 18:05 | 53.57311 | 9.87294 | 1556 ft | 130 kts | 53° |
| 2026-05-07 18:05 | 53.57938 | 9.88555 | 1364 ft | 129 kts | 53° |
| 2026-05-07 18:06 | 53.58571 | 9.89828 | 1165 ft | 130 kts | 52° |
| 2026-05-07 18:06 | 53.59226 | 9.91142 | 963 ft | 130 kts | 52° |
| 2026-05-07 18:06 | 53.59883 | 9.92471 | 758 ft | 131 kts | 52° |
| 2026-05-07 18:06 | 53.60545 | 9.93801 | 554 ft | 131 kts | 53° |
| 2026-05-07 18:07 | 53.61209 | 9.95139 | 350 ft | 132 kts | 52° |
| 2026-05-07 18:07 | 53.61867 | 9.96487 | 139 ft | 130 kts | 50° |
| 2026-05-07 18:07 | 53.62500 | 9.97730 | 68 ft | 107 kts | 51° |
| 2026-05-07 18:07 | 53.62919 | 9.98586 | 68 ft | 56 kts | 50° |
| 2026-05-07 18:08 | 53.63064 | 9.98899 | 68 ft | 16 kts | 65° |
| 2026-05-07 18:08 | 53.63090 | 9.99102 | 68 ft | 15 kts | 90° |
| 2026-05-07 18:08 | 53.63089 | 9.99159 | 68 ft | 3 kts | 92° |
| 2026-05-07 18:08 | 53.63088 | 9.99195 | 68 ft | 2 kts | 92° |
| 2026-05-07 18:09 | 53.63087 | 9.99215 | 68 ft | 0 kts | 95° |
| 2026-05-07 18:09 | 53.63087 | 9.99217 | 68 ft | 0 kts | 95° |
| 2026-05-07 18:09 | 53.63086 | 9.99250 | 68 ft | 3 kts | 94° |
| 2026-05-07 18:09 | 53.63086 | 9.99303 | 68 ft | 4 kts | 86° |
| 2026-05-07 18:10 | 53.63089 | 9.99333 | 68 ft | 0 kts | 77° |
| 2026-05-07 18:11 | 53.63094 | 9.99366 | 68 ft | 6 kts | 71° |
| 2026-05-07 18:12 | 53.63133 | 9.99482 | 68 ft | 13 kts | 54° |
| 2026-05-07 18:12 | 53.63203 | 9.99638 | 68 ft | 5 kts | 52° |
| 2026-05-07 18:12 | 53.63222 | 9.99672 | 68 ft | 0 kts | 45° |
| 2026-05-07 18:12 | 53.63226 | 9.99680 | 68 ft | 1 kts | 46° |
| 2026-05-07 18:13 | 53.63259 | 9.99733 | 68 ft | 9 kts | 44° |
| 2026-05-07 18:13 | 53.63330 | 9.99866 | 68 ft | 16 kts | 50° |
| 2026-05-07 18:13 | 53.63382 | 9.99971 | 68 ft | 0 kts | 50° |
| 2026-05-07 18:14 | 53.63389 | 9.99985 | 68 ft | 4 kts | 50° |
| 2026-05-07 18:14 | 53.63422 | 10.00070 | 68 ft | 9 kts | 76° |
| 2026-05-07 18:14 | 53.63400 | 10.00182 | 68 ft | 9 kts | 146° |
| 2026-05-07 18:14 | 53.63326 | 10.00201 | 68 ft | 9 kts | 178° |
| 2026-05-07 18:15 | 53.63252 | 10.00207 | 68 ft | 9 kts | 177° |
| 2026-05-07 18:15 | 53.63199 | 10.00263 | 68 ft | 8 kts | 105° |
| 2026-05-07 18:15 | 53.63195 | 10.00355 | 68 ft | 0 kts | 89° |
| 2026-05-07 18:15 | 53.63195 | 10.00357 | 68 ft | 0 kts | 89° |